createdAt,value
2023-03-05T00:00:31.011Z,11.60
2023-03-05T00:01:31.249Z,11.66
2023-03-05T00:02:31.490Z,13.32
2023-03-05T00:03:31.714Z,12.29
2023-03-05T00:04:31.921Z,12.34
2023-03-05T00:05:32.144Z,13.60
2023-03-05T00:06:32.353Z,13.53
2023-03-05T00:07:32.571Z,13.60
2023-03-05T00:08:32.780Z,13.81
2023-03-05T00:09:34.947Z,14.51
2023-03-05T01:18:37.790Z,13.56
2023-03-05T01:19:38.050Z,14.41
2023-03-05T01:20:38.296Z,13.10
2023-03-05T01:21:38.536Z,13.66
2023-03-05T01:22:38.721Z,13.30
2023-03-05T01:23:38.946Z,11.61
2023-03-05T01:24:39.163Z,11.13
2023-03-05T01:25:39.390Z,11.61
2023-03-05T01:26:39.601Z,11.27
2023-03-05T01:27:39.834Z,10.13
2023-03-05T01:28:40.058Z,11.50
2023-03-05T01:29:40.301Z,11.29
2023-03-05T01:30:40.498Z,11.63
2023-03-05T02:02:47.791Z,13.36
2023-03-05T02:03:48.051Z,13.93
2023-03-05T02:04:48.290Z,13.96
2023-03-05T02:05:48.529Z,12.94
2023-03-05T02:06:48.765Z,13.64
2023-03-05T02:07:49.000Z,14.41
2023-03-05T02:08:49.221Z,14.38
2023-03-05T02:09:49.465Z,13.75
2023-03-05T02:10:49.696Z,12.61
2023-03-05T02:11:49.934Z,13.30
2023-03-05T02:46:57.822Z,11.17
2023-03-05T02:47:58.003Z,12.19
2023-03-05T02:48:58.213Z,12.85
2023-03-05T02:49:58.434Z,11.97
2023-03-05T02:50:58.643Z,13.12
2023-03-05T02:51:58.837Z,13.28
2023-03-05T02:52:59.077Z,12.43
2023-03-05T03:42:07.723Z,14.30
2023-03-05T03:43:07.841Z,12.92
2023-03-05T03:44:08.044Z,14.63
2023-03-05T03:45:08.096Z,13.32
2023-03-05T03:46:08.256Z,13.67
2023-03-05T03:47:08.348Z,14.14
2023-03-05T03:48:08.473Z,13.94
2023-03-05T03:49:08.603Z,13.55
2023-03-05T03:50:08.722Z,12.69
2023-03-05T03:51:08.856Z,14.07
2023-03-05T03:52:08.987Z,13.30
2023-03-05T03:53:10.097Z,12.58
2023-03-05T03:54:09.252Z,14.69
2023-03-05T03:55:09.402Z,13.29
2023-03-05T03:56:09.547Z,13.74
2023-03-05T04:48:17.797Z,13.03
2023-03-05T04:49:17.948Z,13.71
2023-03-05T04:50:18.103Z,13.81
2023-03-05T04:51:18.257Z,13.80
2023-03-05T05:49:27.721Z,15.62
2023-03-05T05:50:27.984Z,15.45
2023-03-05T05:51:28.230Z,15.08
2023-03-05T05:52:28.491Z,13.81
2023-03-05T05:53:28.709Z,14.68
2023-03-05T05:54:28.965Z,15.72
2023-03-05T05:55:29.199Z,15.22
2023-03-05T05:56:29.304Z,14.75
2023-03-05T05:57:29.643Z,15.64
2023-03-05T05:58:29.883Z,15.25
2023-03-05T05:59:30.133Z,15.18
2023-03-05T06:00:30.371Z,15.88
2023-03-05T06:01:30.480Z,16.64
2023-03-05T06:02:30.790Z,15.92
2023-03-05T06:03:31.126Z,15.11
2023-03-05T06:04:31.241Z,15.56
2023-03-05T06:05:31.477Z,15.38
2023-03-05T06:06:31.740Z,16.20
2023-03-05T06:07:32.003Z,14.78
2023-03-05T06:08:32.231Z,15.48
2023-03-05T06:09:32.499Z,15.09
2023-03-05T06:10:32.740Z,14.70
2023-03-05T06:11:32.991Z,14.20
2023-03-05T06:12:33.251Z,14.34
2023-03-05T06:13:33.497Z,13.75
2023-03-05T06:14:33.748Z,15.73
2023-03-05T06:15:34.003Z,17.04
2023-03-05T06:16:34.322Z,15.91
2023-03-05T06:17:34.497Z,15.15
2023-03-05T06:18:34.742Z,15.60
2023-03-05T06:19:35.000Z,15.20
2023-03-05T06:20:35.235Z,14.41
2023-03-05T06:21:35.469Z,14.59
2023-03-05T06:22:35.698Z,15.46
2023-03-05T06:23:35.935Z,14.81
2023-03-05T06:24:36.171Z,14.89
2023-03-05T06:31:37.811Z,16.69
2023-03-05T06:32:38.081Z,15.39
2023-03-05T06:33:38.287Z,15.74
2023-03-05T06:34:38.537Z,16.80
2023-03-05T06:35:38.796Z,14.28
2023-03-05T06:36:39.023Z,15.05
2023-03-05T06:37:39.269Z,14.65
2023-03-05T06:38:39.537Z,15.23
2023-03-05T06:39:39.764Z,15.10
2023-03-05T06:40:40.007Z,14.89
2023-03-05T06:41:40.274Z,15.24
2023-03-05T06:42:40.488Z,14.70
2023-03-05T06:43:40.734Z,15.55
2023-03-05T06:44:40.970Z,17.06
2023-03-05T06:45:41.250Z,15.85
2023-03-05T06:46:41.441Z,16.09
2023-03-05T06:47:41.661Z,18.51
2023-03-05T06:48:41.914Z,19.38
2023-03-05T06:49:42.131Z,19.31
2023-03-05T06:50:42.357Z,19.65
2023-03-05T06:51:42.589Z,19.43
2023-03-05T06:52:42.828Z,17.88
2023-03-05T07:15:47.805Z,18.08
2023-03-05T07:16:47.869Z,18.14
2023-03-05T07:17:48.009Z,17.81
2023-03-05T07:18:48.153Z,17.74
2023-03-05T07:19:48.304Z,16.79
2023-03-05T07:20:48.455Z,16.19
2023-03-05T07:21:48.591Z,16.53
2023-03-05T07:22:48.732Z,16.48
2023-03-05T07:23:48.906Z,16.81
2023-03-05T07:24:49.041Z,16.58
2023-03-05T07:25:49.334Z,16.15
2023-03-05T07:26:49.330Z,15.51
2023-03-05T07:27:49.476Z,16.83
2023-03-05T07:28:49.620Z,16.13
2023-03-05T07:29:49.760Z,16.19
2023-03-05T07:30:49.924Z,17.66
2023-03-05T07:31:50.068Z,16.38
2023-03-05T07:33:50.361Z,17.48
2023-03-05T07:34:50.467Z,18.01
2023-03-05T07:36:50.749Z,18.06
2023-03-05T08:13:57.805Z,19.43
2023-03-05T08:14:58.050Z,21.06
2023-03-05T08:15:58.280Z,20.79
2023-03-05T08:16:58.498Z,20.29
2023-03-05T08:17:58.745Z,18.09
2023-03-05T08:57:07.870Z,15.41
2023-03-05T08:58:08.094Z,16.74
2023-03-05T08:59:08.851Z,17.18
2023-03-05T09:00:08.418Z,16.77
2023-03-05T09:01:08.512Z,15.51
2023-03-05T09:02:08.710Z,15.54
2023-03-05T09:03:08.765Z,13.70
2023-03-05T09:04:08.824Z,13.55
2023-03-05T09:05:08.931Z,13.40
2023-03-05T09:06:09.040Z,13.52
2023-03-05T09:07:09.153Z,12.70
2023-03-05T09:08:09.252Z,15.47
2023-03-05T09:09:09.350Z,13.77
2023-03-05T09:10:09.448Z,15.80
2023-03-05T09:11:09.554Z,14.08
2023-03-05T09:12:12.051Z,14.91
2023-03-05T09:13:09.829Z,15.86
2023-03-05T09:14:09.916Z,15.41
2023-03-05T09:15:10.037Z,15.26
2023-03-05T09:16:10.187Z,14.43
2023-03-05T09:17:10.259Z,13.50
2023-03-05T09:18:10.350Z,13.83
2023-03-05T09:19:10.449Z,15.40
2023-03-05T09:20:10.528Z,15.24
2023-03-05T09:21:10.592Z,14.65
2023-03-05T09:22:10.715Z,16.12
2023-03-05T09:23:10.760Z,15.47
2023-03-05T09:24:10.857Z,17.51
2023-03-05T09:25:10.974Z,18.10
2023-03-05T09:26:11.040Z,20.06
2023-03-05T09:27:11.121Z,18.93
2023-03-05T09:28:11.205Z,18.14
2023-03-05T09:29:11.320Z,17.32
2023-03-05T09:30:11.446Z,18.24
2023-03-05T09:31:11.684Z,19.33
2023-03-05T09:32:11.640Z,18.46
2023-03-05T09:33:11.658Z,18.25
2023-03-05T09:34:11.715Z,17.66
2023-03-05T09:35:11.767Z,17.43
2023-03-05T09:36:11.811Z,18.28
2023-03-05T09:37:11.875Z,17.42
2023-03-05T09:38:11.914Z,18.34
2023-03-05T09:39:11.969Z,17.26
2023-03-05T09:40:12.048Z,15.49
2023-03-05T09:41:12.150Z,16.12
2023-03-05T09:42:12.268Z,16.18
2023-03-05T09:43:12.348Z,15.37
2023-03-05T09:44:12.445Z,15.06
2023-03-05T09:45:12.492Z,15.48
2023-03-05T09:46:12.602Z,15.44
2023-03-05T09:47:13.757Z,14.48
2023-03-05T09:48:12.772Z,14.81
2023-03-05T09:49:12.891Z,13.67
2023-03-05T09:50:12.963Z,14.89
2023-03-05T09:51:13.051Z,14.38
2023-03-05T09:52:13.125Z,13.77
2023-03-05T09:53:13.189Z,13.23
2023-03-05T09:54:13.221Z,15.00
2023-03-05T09:55:13.257Z,13.00
2023-03-05T09:56:13.311Z,13.37
2023-03-05T09:57:13.367Z,13.02
2023-03-05T09:58:13.438Z,12.04
2023-03-05T09:59:13.512Z,12.06
2023-03-05T10:00:13.640Z,12.50
2023-03-05T10:01:13.576Z,12.29
2023-03-05T10:02:13.600Z,12.52
2023-03-05T10:03:13.735Z,12.77
2023-03-05T10:04:13.740Z,12.57
2023-03-05T10:05:13.749Z,11.08
2023-03-05T10:06:13.888Z,12.69
2023-03-05T10:07:13.968Z,11.67
2023-03-05T10:08:14.055Z,11.71
2023-03-05T10:09:14.148Z,11.72
2023-03-05T10:10:14.278Z,12.09
2023-03-05T10:11:14.368Z,12.04
2023-03-05T10:12:14.445Z,13.20
2023-03-05T10:13:14.542Z,12.67
2023-03-05T10:14:14.631Z,11.84
2023-03-05T10:15:14.708Z,10.72
2023-03-05T10:16:14.830Z,10.34
2023-03-05T10:17:14.813Z,10.03
2023-03-05T10:18:14.880Z,9.71
2023-03-05T10:19:14.958Z,10.10
2023-03-05T10:20:15.051Z,10.17
2023-03-05T10:21:15.117Z,11.21
2023-03-05T10:22:15.232Z,9.69
2023-03-05T10:23:15.221Z,10.27
2023-03-05T10:24:15.264Z,9.75
2023-03-05T10:25:15.279Z,9.76
2023-03-05T10:26:15.310Z,10.52
2023-03-05T10:27:15.388Z,12.25
2023-03-05T10:28:15.399Z,11.65
2023-03-05T10:29:15.456Z,10.79
2023-03-05T10:30:15.484Z,10.53
2023-03-05T10:31:15.525Z,10.35
2023-03-05T10:32:15.769Z,10.37
2023-03-05T10:33:15.646Z,9.45
2023-03-05T11:05:17.813Z,11.19
2023-03-05T11:06:18.007Z,11.63
2023-03-05T11:07:18.162Z,12.63
2023-03-05T11:08:18.215Z,11.29
2023-03-05T11:09:18.265Z,12.23
2023-03-05T11:10:18.333Z,12.38
2023-03-05T11:11:18.407Z,12.34
2023-03-05T11:12:18.462Z,11.88
2023-03-05T11:13:18.522Z,11.42
2023-03-05T11:14:18.585Z,11.57
2023-03-05T11:15:18.671Z,12.08
2023-03-05T11:16:20.852Z,12.27
2023-03-05T11:17:18.762Z,12.87
2023-03-05T11:18:18.798Z,12.04
2023-03-05T11:19:18.870Z,10.68
2023-03-05T11:20:18.946Z,10.24
2023-03-05T11:21:18.994Z,9.73
2023-03-05T11:22:19.078Z,11.04
2023-03-05T11:51:21.087Z,12.35
2023-03-05T11:52:21.128Z,12.09
2023-03-05T11:53:21.203Z,11.81
2023-03-05T11:54:21.244Z,11.41
2023-03-05T11:55:21.277Z,11.20
2023-03-05T11:57:21.319Z,12.33
2023-03-05T11:58:21.328Z,11.73
2023-03-05T11:59:21.340Z,12.07
2023-03-05T12:00:21.348Z,12.52
2023-03-05T12:01:21.377Z,12.17
2023-03-05T12:02:21.452Z,12.23
2023-03-05T12:03:21.480Z,12.92
2023-03-05T12:04:21.500Z,12.20
2023-03-05T12:05:22.093Z,12.28
2023-03-05T12:06:21.588Z,11.61
2023-03-05T12:07:21.614Z,12.67
2023-03-05T12:08:21.641Z,11.92
2023-03-05T12:09:21.620Z,11.76
2023-03-05T12:10:21.642Z,12.09
2023-03-05T12:11:21.662Z,12.23
2023-03-05T12:12:21.709Z,11.66
2023-03-05T12:13:21.729Z,11.03
2023-03-05T12:14:21.762Z,12.43
2023-03-05T12:15:21.777Z,12.35
2023-03-05T12:16:21.865Z,12.59
2023-03-05T12:17:21.850Z,12.48
2023-03-05T12:18:21.874Z,12.91
2023-03-05T12:19:21.888Z,13.26
2023-03-05T12:20:21.921Z,11.38
2023-03-05T15:00:27.757Z,3.07
2023-03-05T15:01:27.938Z,2.78
2023-03-05T15:02:28.170Z,2.79
2023-03-05T15:03:28.317Z,2.81
2023-03-05T15:04:28.466Z,2.82
2023-03-05T15:05:28.592Z,2.77
2023-03-05T15:06:28.769Z,2.55
2023-03-05T15:07:28.938Z,2.93
2023-03-05T15:08:29.200Z,3.14
2023-03-05T15:09:29.291Z,3.40
2023-03-05T15:10:29.423Z,3.77
2023-03-05T15:11:29.575Z,3.56
2023-03-05T15:12:29.765Z,3.36
2023-03-05T15:13:29.908Z,3.05
2023-03-05T15:14:30.079Z,3.48
2023-03-05T15:15:30.243Z,3.32
2023-03-05T15:16:32.144Z,3.11
2023-03-05T15:17:30.304Z,3.24
2023-03-05T15:18:30.364Z,2.88
2023-03-05T15:19:30.254Z,3.86
2023-03-05T15:20:30.233Z,7.77
2023-03-05T15:21:30.231Z,12.98
2023-03-05T15:22:30.198Z,6.82
2023-03-05T15:23:30.158Z,6.68
2023-03-05T15:24:30.101Z,5.37
2023-03-05T15:25:30.054Z,4.81
2023-03-05T15:26:29.997Z,4.89
2023-03-05T15:27:29.934Z,3.55
2023-03-05T15:28:29.901Z,4.14
2023-03-05T15:29:29.877Z,3.97
2023-03-05T15:30:29.844Z,5.38
2023-03-05T15:31:29.887Z,4.35
2023-03-05T15:32:29.886Z,4.04
2023-03-05T15:33:29.766Z,4.44
2023-03-05T15:34:29.724Z,5.19
2023-03-05T15:35:29.761Z,6.61
2023-03-05T15:36:29.654Z,5.52
2023-03-05T15:37:29.605Z,4.28
2023-03-05T15:38:29.568Z,4.18
2023-03-05T15:39:29.526Z,4.06
2023-03-05T15:40:29.507Z,4.70
2023-03-05T15:41:29.490Z,4.18
2023-03-05T15:42:29.457Z,4.16
2023-03-05T15:43:29.449Z,4.37
2023-03-05T16:51:37.828Z,12.49
2023-03-05T16:52:37.974Z,10.75
2023-03-05T16:53:38.110Z,10.48
2023-03-05T17:43:48.477Z,12.66
2023-03-05T17:45:47.833Z,13.27
2023-03-05T17:46:47.862Z,12.37
2023-03-05T17:47:47.936Z,12.96
2023-03-05T17:48:48.023Z,12.84
2023-03-05T17:49:48.078Z,12.36
2023-03-05T17:50:48.192Z,13.63
2023-03-05T17:51:48.193Z,12.62
2023-03-05T17:56:48.501Z,12.45
2023-03-05T17:57:48.543Z,13.67
2023-03-05T17:58:48.646Z,13.25
2023-03-05T17:59:48.710Z,13.21
2023-03-05T18:00:48.831Z,14.48
2023-03-05T18:01:48.868Z,11.84
2023-03-05T18:02:48.946Z,13.64
2023-03-05T18:03:49.017Z,13.13
2023-03-05T18:04:49.079Z,14.31
2023-03-05T18:05:49.148Z,12.77
2023-03-05T18:06:49.169Z,14.21
2023-03-05T18:07:49.226Z,13.36
2023-03-05T18:08:49.296Z,14.20
2023-03-05T18:09:49.366Z,15.46
2023-03-05T18:10:49.445Z,15.40
2023-03-05T18:11:49.531Z,15.09
2023-03-05T18:12:49.596Z,14.38
2023-03-05T18:13:49.650Z,13.52
2023-03-05T18:14:49.692Z,13.11
2023-03-05T18:15:49.841Z,14.64
2023-03-05T18:16:49.841Z,13.75
2023-03-05T18:17:49.915Z,14.90
2023-03-05T18:18:49.990Z,14.22
2023-03-05T18:19:50.055Z,14.13
2023-03-05T18:20:50.117Z,14.90
2023-03-05T18:21:50.138Z,14.28
2023-03-05T18:22:50.216Z,15.94
2023-03-05T18:23:50.290Z,15.17
2023-03-05T18:24:50.367Z,14.88
2023-03-05T18:35:50.913Z,15.17
2023-03-05T18:46:51.287Z,15.10
2023-03-05T18:47:51.325Z,16.37
2023-03-05T18:48:51.369Z,15.52
2023-03-05T18:49:51.410Z,15.17
2023-03-05T18:50:51.416Z,17.87
2023-03-05T18:51:51.462Z,19.46
2023-03-05T18:52:51.470Z,15.96
2023-03-05T18:53:51.516Z,16.01
2023-03-05T18:54:51.561Z,15.88
2023-03-05T18:55:51.659Z,16.31
2023-03-05T18:56:51.676Z,16.16
2023-03-05T18:57:51.728Z,16.50
2023-03-05T18:58:51.779Z,15.35
2023-03-05T18:59:51.819Z,16.21
2023-03-05T19:00:51.866Z,15.19
2023-03-05T19:01:51.916Z,15.91
2023-03-05T19:02:51.964Z,15.70
2023-03-05T19:03:51.998Z,16.60
2023-03-05T19:04:52.020Z,16.26
2023-03-05T19:20:52.569Z,16.93
2023-03-05T20:45:57.706Z,16.34
2023-03-05T20:46:57.807Z,17.07
2023-03-05T20:47:57.880Z,17.44
2023-03-05T20:48:57.966Z,17.12
2023-03-05T20:49:58.061Z,18.05
2023-03-05T20:50:58.161Z,17.21
2023-03-05T20:51:58.260Z,16.88
2023-03-05T20:52:58.360Z,18.19
2023-03-05T20:53:58.438Z,18.70
2023-03-05T20:54:58.570Z,18.34
2023-03-05T20:55:58.648Z,17.79
2023-03-05T20:56:58.745Z,18.65
2023-03-05T20:57:58.853Z,17.16
2023-03-05T20:58:58.952Z,17.19
2023-03-05T20:59:59.064Z,17.03
2023-03-05T23:02:17.811Z,19.25
2023-03-05T23:03:18.075Z,18.49
2023-03-05T23:04:18.330Z,16.66
2023-03-05T23:05:18.543Z,18.03
2023-03-05T23:06:18.817Z,18.31
2023-03-05T23:07:19.012Z,17.94
2023-03-05T23:08:19.232Z,18.27
2023-03-05T23:09:19.492Z,18.18
2023-03-05T23:10:19.740Z,17.72
2023-03-05T23:11:19.987Z,18.46
2023-03-05T23:12:20.251Z,18.44
2023-03-05T23:44:27.858Z,18.22
2023-03-05T23:45:28.107Z,18.22
2023-03-05T23:46:28.397Z,18.83
2023-03-05T23:47:28.593Z,17.92
2023-03-05T23:48:28.836Z,16.90
2023-03-05T23:49:29.075Z,18.08
2023-03-05T23:50:29.308Z,17.19
2023-03-05T23:51:29.547Z,17.07
2023-03-05T23:53:29.994Z,17.75
